createdAt,value
2023-04-09T00:03:03.860Z,16.51
2023-04-09T00:08:07.499Z,16.78
2023-04-09T00:13:12.054Z,16.79
2023-04-09T00:18:15.754Z,16.18
2023-04-09T00:23:20.755Z,16.39
2023-04-09T00:28:28.174Z,16.76
2023-04-09T00:33:33.946Z,16.55
2023-04-09T00:38:39.225Z,15.95
2023-04-09T00:43:43.824Z,16.13
2023-04-09T00:48:46.972Z,16.18
2023-04-09T00:53:52.692Z,16.17
2023-04-09T00:58:58.547Z,16.13
2023-04-09T01:04:05.673Z,16.08
2023-04-09T01:09:15.915Z,16.06
2023-04-09T01:14:25.612Z,16.22
2023-04-09T01:19:42.727Z,15.85
2023-04-09T01:24:58.400Z,16.03
2023-04-09T01:30:05.839Z,16.14
2023-04-09T01:35:10.128Z,16.07
2023-04-09T01:40:13.840Z,16.04
2023-04-09T01:45:21.264Z,15.78
2023-04-09T01:50:25.039Z,15.14
2023-04-09T01:55:30.235Z,15.04
2023-04-09T02:00:38.135Z,15.02
2023-04-09T02:05:46.004Z,14.85
2023-04-09T02:10:55.435Z,15.30
2023-04-09T02:16:01.075Z,15.26
2023-04-09T02:21:08.235Z,15.17
2023-04-09T02:26:11.378Z,15.12
2023-04-09T02:31:16.034Z,15.09
2023-04-09T02:36:20.837Z,15.35
2023-04-09T02:41:26.061Z,15.25
2023-04-09T02:46:30.683Z,15.07
2023-04-09T02:51:36.080Z,15.34
2023-04-09T02:56:43.436Z,15.42
2023-04-09T03:01:50.341Z,15.37
2023-04-09T03:06:53.552Z,15.18
2023-04-09T03:11:57.452Z,15.13
2023-04-09T03:17:01.948Z,15.02
2023-04-09T03:22:06.304Z,15.03
2023-04-09T03:27:09.497Z,14.96
2023-04-09T03:32:18.897Z,14.93
2023-04-09T03:37:22.306Z,14.79
2023-04-09T03:42:28.824Z,14.65
2023-04-09T03:47:37.758Z,14.71
2023-04-09T03:52:40.992Z,14.79
2023-04-09T03:57:44.113Z,14.12
2023-04-09T04:08:00.755Z,14.27
2023-04-09T04:13:03.975Z,14.13
2023-04-09T04:18:18.559Z,13.91
2023-04-09T04:23:23.291Z,13.15
2023-04-09T04:28:26.437Z,13.85
2023-04-09T04:33:33.304Z,13.87
2023-04-09T04:38:39.474Z,14.06
2023-04-09T04:43:44.301Z,14.19
2023-04-09T04:48:48.837Z,14.22
2023-04-09T04:53:51.952Z,14.03
2023-04-09T04:58:55.102Z,14.21
2023-04-09T05:04:00.835Z,14.31
2023-04-09T05:09:09.966Z,14.18
2023-04-09T05:14:13.438Z,13.98
2023-04-09T05:19:17.946Z,13.91
2023-04-09T05:24:21.116Z,13.79
2023-04-09T05:29:24.259Z,13.73
2023-04-09T05:34:28.772Z,14.00
2023-04-09T05:39:37.937Z,13.89
2023-04-09T05:44:54.695Z,13.98
2023-04-09T05:49:59.240Z,13.61
2023-04-09T05:55:10.527Z,13.50
2023-04-09T06:00:52.260Z,13.57
2023-04-09T06:05:59.889Z,13.54
2023-04-09T06:17:36.728Z,13.47
2023-04-09T06:28:09.270Z,13.91
2023-04-09T06:33:51.781Z,13.85
2023-04-09T06:45:11.805Z,13.95
2023-04-09T06:50:31.733Z,14.14
2023-04-09T06:55:51.047Z,14.80
2023-04-09T07:01:08.183Z,14.95
2023-04-09T07:06:21.440Z,15.01
2023-04-09T07:11:25.976Z,15.01
2023-04-09T07:17:22.027Z,15.25
2023-04-09T07:23:18.522Z,15.87
2023-04-09T07:28:54.360Z,16.43
2023-04-09T07:34:17.718Z,17.06
2023-04-09T07:58:36.229Z,19.59
2023-04-09T08:03:48.847Z,19.50
2023-04-09T08:08:53.209Z,20.68
2023-04-09T08:13:57.293Z,20.39
2023-04-09T08:19:02.332Z,20.75
2023-04-09T08:24:06.110Z,20.45
2023-04-09T08:29:10.087Z,20.90
2023-04-09T08:34:16.217Z,21.06
2023-04-09T08:39:23.583Z,21.29
2023-04-09T08:44:27.871Z,21.61
2023-04-09T08:49:32.414Z,22.23
2023-04-09T08:54:35.829Z,22.31
2023-04-09T08:59:38.974Z,22.90
2023-04-09T09:04:47.643Z,22.98
2023-04-09T09:09:55.732Z,23.16
2023-04-09T09:14:59.223Z,23.08
2023-04-09T09:20:20.769Z,22.88
2023-04-09T09:25:26.046Z,22.89
2023-04-09T09:30:29.704Z,23.83
2023-04-09T09:35:49.193Z,24.01
2023-04-09T09:40:52.799Z,23.82
2023-04-09T09:45:57.734Z,23.90
2023-04-09T09:51:04.474Z,24.15
2023-04-09T09:56:12.801Z,24.45
2023-04-09T10:01:19.486Z,25.60
2023-04-09T10:06:24.655Z,26.31
2023-04-09T10:11:27.908Z,27.83
2023-04-09T10:16:31.898Z,29.01
2023-04-09T10:21:43.559Z,29.29
2023-04-09T10:26:47.210Z,29.43
2023-04-09T10:31:53.536Z,30.18
2023-04-09T10:36:59.955Z,30.33
2023-04-09T10:42:10.026Z,30.00
2023-04-09T10:47:13.338Z,30.25
2023-04-09T10:52:17.956Z,30.02
2023-04-09T10:57:24.723Z,29.98
2023-04-09T11:03:06.088Z,29.69
2023-04-09T11:08:12.159Z,29.24
2023-04-09T11:13:16.327Z,29.40
2023-04-09T11:18:23.623Z,29.87
2023-04-09T11:23:29.266Z,29.89
2023-04-09T11:28:32.416Z,29.48
2023-04-09T11:33:35.669Z,29.08
2023-04-09T11:38:40.188Z,28.98
2023-04-09T11:43:43.383Z,29.03
2023-04-09T11:48:46.904Z,28.94
2023-04-09T11:53:51.567Z,28.67
2023-04-09T11:58:56.237Z,28.60
2023-04-09T12:04:00.130Z,28.43
2023-04-09T12:09:05.057Z,27.99
2023-04-09T12:14:09.293Z,28.10
2023-04-09T12:19:13.720Z,27.70
2023-04-09T12:24:20.041Z,27.72
2023-04-09T12:29:23.176Z,28.10
2023-04-09T12:34:27.401Z,27.74
2023-04-09T12:39:33.842Z,27.65
2023-04-09T12:44:37.605Z,27.86
2023-04-09T12:49:42.274Z,27.96
2023-04-09T12:54:48.656Z,27.61
2023-04-09T12:59:51.965Z,27.00
2023-04-09T13:04:55.120Z,27.38
2023-04-09T13:09:59.761Z,27.40
2023-04-09T13:15:03.983Z,26.84
2023-04-09T13:20:08.507Z,27.07
2023-04-09T13:25:14.900Z,26.71
2023-04-09T13:30:18.231Z,26.76
2023-04-09T13:35:21.435Z,26.99
2023-04-09T13:40:26.079Z,27.12
2023-04-09T13:45:29.204Z,26.72
2023-04-09T13:50:32.354Z,26.97
2023-04-09T13:55:36.963Z,27.17
2023-04-09T14:00:40.553Z,26.97
2023-04-09T14:05:43.686Z,27.04
2023-04-09T14:10:48.246Z,26.74
2023-04-09T14:15:51.446Z,26.72
2023-04-09T14:20:54.693Z,26.95
2023-04-09T14:25:59.271Z,26.98
2023-04-09T14:31:02.633Z,26.83
2023-04-09T14:36:06.278Z,26.90
2023-04-09T14:41:10.641Z,26.72
2023-04-09T14:46:13.868Z,26.60
2023-04-09T14:51:17.131Z,26.64
2023-04-09T14:56:21.661Z,26.77
2023-04-09T15:01:24.798Z,26.64
2023-04-09T15:06:28.083Z,26.57
2023-04-09T15:11:32.649Z,26.36
2023-04-09T15:16:37.596Z,26.31
2023-04-09T15:21:40.900Z,26.26
2023-04-09T15:26:45.553Z,26.04
2023-04-09T15:31:49.650Z,25.96
2023-04-09T15:36:53.081Z,26.01
2023-04-09T15:41:57.792Z,26.12
2023-04-09T15:47:00.907Z,25.50
2023-04-09T15:52:04.123Z,25.51
2023-04-09T15:57:08.691Z,25.49
2023-04-09T16:02:11.867Z,25.41
2023-04-09T16:07:16.683Z,25.36
2023-04-09T16:12:21.377Z,25.06
2023-04-09T16:17:24.612Z,24.95
2023-04-09T16:22:27.836Z,24.75
2023-04-09T16:27:32.583Z,24.56
2023-04-09T16:32:35.783Z,24.52
2023-04-09T16:37:38.978Z,24.40
2023-04-09T16:42:43.517Z,24.15
2023-04-09T16:47:50.090Z,23.95
2023-04-09T16:52:54.610Z,23.95
2023-04-09T16:57:59.169Z,23.80
2023-04-09T17:03:02.564Z,23.72
2023-04-09T17:08:06.816Z,23.58
2023-04-09T17:13:11.095Z,23.25
2023-04-09T17:18:14.215Z,23.23
2023-04-09T17:23:17.373Z,23.13
2023-04-09T17:28:22.047Z,23.09
2023-04-09T17:33:25.230Z,23.13
2023-04-09T17:38:28.343Z,23.07
2023-04-09T17:43:32.868Z,22.98
2023-04-09T17:48:36.161Z,22.78
2023-04-09T17:53:39.427Z,22.69
2023-04-09T17:58:44.319Z,22.74
2023-04-09T18:03:47.756Z,22.38
2023-04-09T18:08:52.678Z,22.41
2023-04-09T18:13:57.606Z,22.04
2023-04-09T18:19:00.880Z,21.81
2023-04-09T18:24:04.613Z,21.63
2023-04-09T18:29:09.258Z,21.30
2023-04-09T18:34:12.450Z,21.07
2023-04-09T18:39:15.789Z,21.05
2023-04-09T18:44:20.400Z,21.04
2023-04-09T18:49:23.624Z,20.85
2023-04-09T18:54:27.291Z,20.81
2023-04-09T18:59:31.938Z,20.66
2023-04-09T19:04:39.741Z,20.54
2023-04-09T19:09:44.789Z,20.27
2023-04-09T19:14:49.582Z,20.31
2023-04-09T19:19:52.815Z,20.12
2023-04-09T19:24:56.229Z,19.95
2023-04-09T19:30:01.312Z,19.64
2023-04-09T19:35:04.732Z,19.60
2023-04-09T19:40:09.389Z,19.43
2023-04-09T19:45:14.453Z,19.37
2023-04-09T19:50:17.816Z,19.35
2023-04-09T19:55:21.567Z,19.16
2023-04-09T20:00:26.700Z,19.14
2023-04-09T20:05:30.701Z,19.00
2023-04-09T20:10:35.606Z,18.90
2023-04-09T20:15:40.337Z,18.75
2023-04-09T20:20:43.610Z,18.59
2023-04-09T20:25:47.030Z,18.40
2023-04-09T20:30:51.836Z,18.38
2023-04-09T20:35:55.165Z,18.21
2023-04-09T20:40:58.543Z,18.04
2023-04-09T20:46:03.479Z,17.98
2023-04-09T20:51:10.695Z,17.93
2023-04-09T20:56:14.337Z,17.90
2023-04-09T21:01:19.459Z,17.91
2023-04-09T21:06:22.927Z,17.84
2023-04-09T21:11:26.143Z,17.65
2023-04-09T21:16:31.326Z,17.55
2023-04-09T21:21:34.806Z,17.63
2023-04-09T21:26:49.906Z,17.45
2023-04-09T21:31:56.068Z,17.44
2023-04-09T21:36:59.422Z,17.51
2023-04-09T21:42:03.090Z,17.28
2023-04-09T21:47:09.207Z,16.82
2023-04-09T21:52:15.055Z,17.03
2023-04-09T21:57:18.715Z,16.71
2023-04-09T22:02:23.525Z,16.81
2023-04-09T22:07:27.097Z,16.68
2023-04-09T22:12:30.368Z,16.52
2023-04-09T22:17:35.085Z,16.53
2023-04-09T22:22:38.452Z,16.26
2023-04-09T22:27:41.887Z,16.22
2023-04-09T22:32:46.586Z,16.50
2023-04-09T22:37:49.932Z,16.60
2023-04-09T22:42:53.145Z,16.44
2023-04-09T22:47:58.286Z,16.39
2023-04-09T22:53:02.316Z,16.26
2023-04-09T22:58:05.789Z,16.34
2023-04-09T23:03:10.675Z,16.47
2023-04-09T23:08:13.961Z,15.88
2023-04-09T23:13:18.254Z,15.86
2023-04-09T23:18:23.161Z,15.78
2023-04-09T23:23:26.214Z,15.56
2023-04-09T23:28:30.025Z,15.63
2023-04-09T23:33:34.667Z,15.60
2023-04-09T23:38:40.281Z,15.69
2023-04-09T23:43:43.508Z,15.14
2023-04-09T23:48:48.121Z,15.12
2023-04-09T23:53:51.811Z,15.51
2023-04-09T23:58:55.463Z,15.69
